Nearby METAR Reports

 

KMTN - Baltimore/Martin, Maryland, USA
Distance from station: SSE 8mi, 13km
Updated: Mon, 08-Feb-2016 10:55am EST
Partly cloudy
Partly cloudy
 Wind from N
Wind: N 8 mph , 13 km/h
Temperature: 45°F , 7°C
Wind Chill: 41°F , 5°C
Dew Point: 30°F , -1°C
Humidity: 57%
Barometer: 29.79 inHg , 1008.8 hPa
Clouds: Partly cloudy
Visibility: 10 miles , 16 km
Cloud details: Few Clouds 3000 ft
Partly cloudy 9000 ft
Partly cloudy 18000 ft
2016/02/08 15:55 KMTN 081555Z 36007KT 10SM FEW030 SCT090 SCT180 07/M01 A2979
KDMH - Baltimore/Dwntwn, Maryland, USA
Distance from station: SW 12mi, 19km
Updated: Mon, 08-Feb-2016 10:54am EST

 
Temperature: 43°F , 6°C
Dew Point: 27°F , -3°C
Humidity: 53%
Barometer: 29.80 inHg , 1009.1 hPa
2016/02/08 15:54 KDMH 081554Z AUTO 06/M03 A2980 RMK AO1 SLP091 T00611028
 
KBWI - Balto/Wash Intl, Maryland, USA
Distance from station: SSW 20mi, 33km
Updated: Mon, 08-Feb-2016 10:54am EST
Mostly cloudy
Mostly cloudy
 Wind from NE
Wind: NE 10 mph , 17 km/h
Temperature: 43°F , 6°C
Wind Chill: 37°F , 3°C
Dew Point: 27°F , -3°C
Humidity: 53%
Barometer: 29.77 inHg , 1008.1 hPa
Clouds: Mostly cloudy
Visibility: 10 miles , 16 km
Cloud details: Mostly cloudy 2900 ft
Mostly cloudy 9000 ft
Mostly cloudy 18000 ft
Mostly cloudy 25000 ft
2016/02/08 15:54 KBWI 081554Z 05009KT 10SM BKN029 BKN090 BKN180 BKN250 06/M03 A2977 RMK AO2 SLP082 T00561028
KDMW - Carroll Cnty, Maryland, USA
Distance from station: WNW 30mi, 48km
Updated: Mon, 08-Feb-2016 11:30am EST
Clear
Clear
 Wind from ESE
Wind: ESE 5 mph , 7 km/h
Temperature: 39°F , 4°C
Wind Chill: 35°F , 2°C
Dew Point: 34°F , 1°C
Humidity: 81%
Barometer: 29.74 inHg , 1007.1 hPa
Clouds: Clear
Visibility: 10 miles , 16 km
2016/02/08 16:30 KDMW 081630Z AUTO 11004KT 10SM CLR 04/01 A2974 RMK AO2
 
KNAK - Annapolis/Naval, Maryland, USA
Distance from station: S 30mi, 48km
Updated: Mon, 08-Feb-2016 10:54am EST

 Wind from NNE
Wind: NNE 7 mph , 11 km/h
Temperature: 41°F , 5°C
Wind Chill: 36°F , 2°C
Dew Point: 27°F , -3°C
Humidity: 57%
Barometer: 29.78 inHg , 1008.5 hPa
Visibility: 10 miles , 16 km
2016/02/08 15:54 KNAK 081554Z AUTO 03006KT 10SM 05/M03 A2978 RMK AO2 SLP085 T00501028
KW29 - Stevensville, Maryland, USA
Distance from station: SSE 31mi, 50km
Updated: Mon, 08-Feb-2016 11:30am EST

 Wind from calm
Wind: Calm
Temperature: 43°F , 6°C
Dew Point: 28°F , -2°C
Humidity: 57%
Barometer: 29.77 inHg , 1008.1 hPa
Visibility: 10 miles , 16 km
2016/02/08 16:30 KW29 081630Z AUTO 00000KT 10SM 06/M02 A2977 RMK AO1
 
KCGS - College Park, Maryland, USA
Distance from station: SW 38mi, 61km
Updated: Mon, 08-Feb-2016 11:25am EST
Partly cloudy
Partly cloudy
 Wind from calm
Wind: Calm
Temperature: 43°F , 6°C
Dew Point: 28°F , -2°C
Humidity: 57%
Barometer: 29.77 inHg , 1008.1 hPa
Clouds: Partly cloudy
Visibility: 10 miles , 16 km
Cloud details: Partly cloudy 3400 ft
2016/02/08 16:25 KCGS 081625Z AUTO 00000KT 10SM SCT034 06/M02 A2977 RMK AO1
KGAI - Gaithersburg, Maryland, USA
Distance from station: WSW 40mi, 65km
Updated: Mon, 08-Feb-2016 11:35am EST
Clear
Clear
 Wind from E
Wind: E 6 mph , 9 km/h
Temperature: 43°F , 6°C
Wind Chill: 39°F , 4°C
Dew Point: 25°F , -4°C
Humidity: 49%
Barometer: 29.79 inHg , 1008.8 hPa
Clouds: Clear
Visibility: 10 miles , 16 km
2016/02/08 16:35 KGAI 081635Z AUTO 10005KT 10SM CLR 06/M04 A2979 RMK AO1
 
KTHV - York, Pennsylvania, USA
Distance from station: NNW 40mi, 65km
Updated: Mon, 08-Feb-2016 10:53am EST
Clear
Clear
 Wind from E
Wind: E 8 mph , 13 km/h
Temperature: 39°F , 4°C
Wind Chill: 33°F , 1°C
Dew Point: 28°F , -2°C
Humidity: 65%
Barometer: 29.77 inHg , 1008.1 hPa
Clouds: Clear
Visibility: 10 miles , 16 km
2016/02/08 15:53 KTHV 081553Z AUTO 08007KT 10SM CLR 04/M02 A2977 RMK AO2 SLP088 T00441022
KFDK - Frederick, Maryland, USA
Distance from station: W 47mi, 75km
Updated: Mon, 08-Feb-2016 10:47am EST
Clear
Clear
 Wind from varies
Wind: varies 5 mph , 7 km/h
Temperature: 39°F , 4°C
Wind Chill: 35°F , 2°C
Dew Point: 28°F , -2°C
Humidity: 65%
Barometer: 29.81 inHg , 1009.5 hPa
Clouds: Clear
Visibility: 10 miles , 16 km
2016/02/08 15:47 KFDK 081547Z VRB04KT 10SM SKC 04/M02 A2981
 
KESN - Easton/Newnam, Maryland, USA
Distance from station: SSE 48mi, 78km
Updated: Mon, 08-Feb-2016 10:50am EST
Few Clouds
Few Clouds
 Wind from NE
Wind: NE 12 mph , 19 km/h
Temperature: 43°F , 6°C
Wind Chill: 37°F , 3°C
Dew Point: 30°F , -1°C
Humidity: 61%
Barometer: 29.80 inHg , 1009.1 hPa
Clouds: Few Clouds
Visibility: 10 miles , 16 km
Cloud details: Few Clouds 15000 ft
2016/02/08 15:50 KESN 081550Z 05010KT 10SM FEW150 06/M01 A2980
KDCA - Washington/Natl, Washington D.c., USA
Distance from station: SW 49mi, 79km
Updated: Mon, 08-Feb-2016 10:52am EST
Mostly cloudy
Mostly cloudy
 Wind from E
Wind: E 7 mph , 11 km/h
Temperature: 45°F , 7°C
Wind Chill: 41°F , 5°C
Dew Point: 28°F , -2°C
Humidity: 53%
Barometer: 29.80 inHg , 1009.1 hPa
Clouds: Mostly cloudy
Visibility: 10 miles , 16 km
Cloud details: Few Clouds 14000 ft
Mostly cloudy 23000 ft
2016/02/08 15:52 KDCA 081552Z 08006KT 10SM FEW140 BKN230 07/M02 A2980 RMK AO2 SLP090 T00671022
 
KLNS - Lancaster, Pennsylvania, USA
Distance from station: N 49mi, 79km
Updated: Mon, 08-Feb-2016 10:53am EST
Clear
Clear
 Wind from E
Wind: E 13 mph , 20 km/h
Temperature: 39°F , 4°C
Wind Chill: 31°F , -1°C
Dew Point: 27°F , -3°C
Humidity: 61%
Barometer: 29.77 inHg , 1008.1 hPa
Clouds: Clear
Visibility: 10 miles , 16 km
2016/02/08 15:53 KLNS 081553Z 10011KT 10SM CLR 04/M03 A2977 RMK AO2 SLP082 T00391028
KILG - Wilmington, Delaware, USA
Distance from station: ENE 50mi, 81km
Updated: Mon, 08-Feb-2016 10:51am EST
Overcast
Overcast
 Wind from NE
Wind: NE 10 mph , 17 km/h
Temperature: 41°F , 5°C
Wind Chill: 35°F , 2°C
Dew Point: 27°F , -3°C
Humidity: 57%
Barometer: 29.78 inHg , 1008.5 hPa
Clouds: Overcast
Visibility: 10 miles , 16 km
Cloud details: Overcast 3300 ft
2016/02/08 15:51 KILG 081551Z 05009KT 10SM OVC033 05/M03 A2978 RMK AO2 SLP085 T00501028